createdAt,value
2022-10-15T00:01:44.933Z,97996.39
2022-10-15T00:04:13.075Z,97995.36
2022-10-15T00:06:41.057Z,97994.15
2022-10-15T00:09:09.069Z,97991.38
2022-10-15T00:11:37.401Z,97993.63
2022-10-15T00:14:05.504Z,97990.51
2022-10-15T00:16:33.778Z,97992.23
2022-10-15T00:19:02.088Z,97992.59
2022-10-15T00:21:30.293Z,97994.48
2022-10-15T00:23:58.327Z,97995.02
2022-10-15T00:26:28.593Z,97993.11
2022-10-15T00:29:02.712Z,97989.12
2022-10-15T00:31:32.436Z,97990.33
2022-10-15T00:34:02.942Z,97990.32
2022-10-15T00:36:34.761Z,97986.15
2022-10-15T00:39:06.047Z,97984.58
2022-10-15T00:41:38.077Z,97989.98
2022-10-15T00:44:21.811Z,97989.63
2022-10-15T00:46:54.987Z,97988.77
2022-10-15T00:49:31.516Z,97982.34
2022-10-15T00:52:05.863Z,97977.66
2022-10-15T00:54:39.993Z,97977.48
2022-10-15T00:57:09.626Z,97977.85
2022-10-15T00:59:43.141Z,97976.80
2022-10-15T01:02:12.803Z,97972.46
2022-10-15T01:04:42.299Z,97978.54
2022-10-15T01:07:11.132Z,97981.66
2022-10-15T01:09:42.760Z,97984.44
2022-10-15T01:12:26.226Z,97983.58
2022-10-15T01:15:11.257Z,97987.56
2022-10-15T01:17:48.560Z,97986.16
2022-10-15T01:20:41.864Z,97988.95
2022-10-15T01:23:34.373Z,97991.90
2022-10-15T01:26:54.241Z,97991.19
2022-10-15T01:29:40.509Z,97990.49
2022-10-15T01:32:14.606Z,97993.97
2022-10-15T01:35:18.762Z,97993.96
2022-10-15T01:37:57.389Z,97994.33
2022-10-15T01:40:32.541Z,97996.58
2022-10-15T01:43:07.869Z,97998.32
2022-10-15T01:46:03.908Z,97995.02
2022-10-15T01:48:44.436Z,97993.96
2022-10-15T01:51:18.188Z,97990.64
2022-10-15T01:53:47.985Z,97990.44
2022-10-15T01:56:21.473Z,97989.74
2022-10-15T01:58:53.153Z,97988.67
2022-10-15T02:01:22.362Z,97987.95
2022-10-15T02:03:53.014Z,97988.95
2022-10-15T02:06:43.286Z,97987.17
2022-10-15T02:09:25.428Z,97986.45
2022-10-15T02:12:12.332Z,97987.29
2022-10-15T02:14:52.386Z,97985.88
2022-10-15T02:17:28.816Z,97984.13
2022-10-15T02:20:20.996Z,97985.34
2022-10-15T02:22:56.861Z,97988.45
2022-10-15T02:25:28.321Z,97988.62
2022-10-15T02:27:58.431Z,97989.13
2022-10-15T02:30:30.332Z,97991.55
2022-10-15T02:33:00.377Z,97993.98
2022-10-15T02:35:29.520Z,97992.10
2022-10-15T02:38:03.691Z,97995.96
2022-10-15T02:40:36.365Z,97997.39
2022-10-15T02:43:09.389Z,98000.05
2022-10-15T02:45:38.351Z,98001.12
2022-10-15T02:48:07.876Z,97999.93
2022-10-15T02:50:36.949Z,98000.31
2022-10-15T02:53:06.087Z,97999.63
2022-10-15T02:55:35.492Z,97996.69
2022-10-15T02:58:03.936Z,98000.36
2022-10-15T03:00:32.457Z,98003.84
2022-10-15T03:03:01.334Z,98001.39
2022-10-15T03:05:29.887Z,98001.73
2022-10-15T03:08:00.098Z,98000.34
2022-10-15T03:10:29.353Z,98001.38
2022-10-15T03:13:03.910Z,98002.77
2022-10-15T03:15:32.833Z,98002.08
2022-10-15T03:18:01.021Z,98006.26
2022-10-15T03:20:29.880Z,98009.59
2022-10-15T03:22:58.056Z,98006.83
2022-10-15T03:25:26.345Z,98009.95
2022-10-15T03:27:59.917Z,98009.95
2022-10-15T03:30:37.117Z,98013.42
2022-10-15T03:33:05.944Z,98013.41
2022-10-15T03:35:34.634Z,98016.90
2022-10-15T03:38:03.112Z,98015.68
2022-10-15T03:40:32.325Z,98019.68
2022-10-15T03:43:09.791Z,98020.74
2022-10-15T03:45:37.966Z,98017.79
2022-10-15T03:48:14.777Z,98018.48
2022-10-15T03:50:42.884Z,98021.78
2022-10-15T03:53:11.194Z,98023.34
2022-10-15T03:55:39.780Z,98024.21
2022-10-15T03:58:07.873Z,98025.59
2022-10-15T04:00:44.151Z,98025.25
2022-10-15T04:03:12.665Z,98025.42
2022-10-15T04:05:40.825Z,98026.13
2022-10-15T04:08:10.681Z,98025.42
2022-10-15T04:10:41.182Z,98022.99
2022-10-15T04:13:09.183Z,98023.52
2022-10-15T04:15:40.596Z,98020.40
2022-10-15T04:18:14.360Z,98020.04
2022-10-15T04:20:43.035Z,98021.41
2022-10-15T04:23:21.167Z,98025.41
2022-10-15T04:26:07.789Z,98025.22
2022-10-15T04:28:36.044Z,98023.66
2022-10-15T04:31:04.832Z,98024.18
2022-10-15T04:33:33.142Z,98024.71
2022-10-15T04:36:07.164Z,98024.02
2022-10-15T04:38:54.140Z,98023.33
2022-10-15T04:41:35.438Z,98027.29
2022-10-15T04:44:06.007Z,98027.95
2022-10-15T04:46:34.186Z,98028.45
2022-10-15T04:49:25.111Z,98032.95
2022-10-15T04:51:53.607Z,98032.25
2022-10-15T04:54:29.933Z,98032.42
2022-10-15T04:57:00.234Z,98040.74
2022-10-15T04:59:28.495Z,98041.27
2022-10-15T05:02:15.295Z,98039.89
2022-10-15T05:04:44.130Z,98041.63
2022-10-15T05:07:12.442Z,98046.99
2022-10-15T05:09:46.025Z,98052.38
2022-10-15T05:12:15.014Z,98056.39
2022-10-15T05:14:43.193Z,98055.58
2022-10-15T05:17:17.090Z,98056.30
2022-10-15T05:19:45.495Z,98058.73
2022-10-15T05:22:19.609Z,98062.21
2022-10-15T05:24:52.697Z,98066.05
2022-10-15T05:27:41.215Z,98066.93
2022-10-15T05:30:10.802Z,98069.20
2022-10-15T05:32:44.457Z,98069.05
2022-10-15T05:35:14.068Z,98071.30
2022-10-15T05:37:56.634Z,98071.48
2022-10-15T05:40:24.828Z,98076.16
2022-10-15T05:43:07.468Z,98080.14
2022-10-15T05:45:35.448Z,98082.24
2022-10-15T05:48:05.697Z,98082.41
2022-10-15T05:50:33.791Z,98084.15
2022-10-15T05:53:03.883Z,98086.59
2022-10-15T05:55:35.259Z,98087.30
2022-10-15T05:58:04.454Z,98091.64
2022-10-15T06:00:32.807Z,98090.26
2022-10-15T06:03:00.914Z,98092.69
2022-10-15T06:05:29.300Z,98092.86
2022-10-15T06:07:57.883Z,98097.36
2022-10-15T06:10:25.943Z,98094.60
2022-10-15T06:12:54.022Z,98095.11
2022-10-15T06:15:22.677Z,98100.67
2022-10-15T06:17:54.383Z,98104.33
2022-10-15T06:20:22.529Z,98105.20
2022-10-15T06:22:50.721Z,98103.80
2022-10-15T06:25:18.827Z,98108.50
2022-10-15T06:27:46.903Z,98106.08
2022-10-15T06:30:14.958Z,98104.15
2022-10-15T06:32:53.504Z,98106.23
2022-10-15T06:35:23.247Z,98106.93
2022-10-15T06:37:52.762Z,98109.71
2022-10-15T06:40:21.266Z,98112.66
2022-10-15T06:42:50.047Z,98115.08
2022-10-15T06:45:21.011Z,98113.16
2022-10-15T06:47:50.040Z,98116.45
2022-10-15T06:50:18.298Z,98114.18
2022-10-15T06:52:46.566Z,98109.83
2022-10-15T06:55:15.548Z,98108.28
2022-10-15T06:57:44.036Z,98110.70
2022-10-15T07:00:16.044Z,98112.11
2022-10-15T07:02:44.444Z,98111.59
2022-10-15T07:05:12.798Z,98106.91
2022-10-15T07:07:41.222Z,98106.22
2022-10-15T07:10:09.830Z,98108.29
2022-10-15T07:12:41.552Z,98111.23
2022-10-15T07:15:10.011Z,98107.20
2022-10-15T07:17:39.714Z,98110.64
2022-10-15T07:20:08.399Z,98113.39
2022-10-15T07:22:36.987Z,98113.73
2022-10-15T07:25:06.627Z,98110.58
2022-10-15T07:27:35.062Z,98106.52
2022-10-15T07:30:05.799Z,98103.90
2022-10-15T07:32:36.763Z,98104.89
2022-10-15T07:35:05.663Z,98100.86
2022-10-15T07:37:33.768Z,98100.11
2022-10-15T07:40:02.087Z,98099.96
2022-10-15T07:42:30.251Z,98099.48
2022-10-15T07:44:58.493Z,98103.84
2022-10-15T07:47:27.226Z,98104.90
2022-10-15T07:49:55.436Z,98105.10
2022-10-15T07:52:24.449Z,98108.05
2022-10-15T07:54:52.934Z,98110.48
2022-10-15T07:57:21.054Z,98112.02
2022-10-15T07:59:49.141Z,98114.04
2022-10-15T08:02:18.723Z,98114.31
2022-10-15T08:04:46.639Z,98113.15
2022-10-15T08:07:15.595Z,98116.66
2022-10-15T08:09:44.149Z,98112.87
2022-10-15T08:12:12.227Z,98108.77
2022-10-15T08:14:40.759Z,98103.73
2022-10-15T08:17:09.017Z,98101.36
2022-10-15T08:19:37.447Z,98105.38
2022-10-15T08:22:05.839Z,98106.65
2022-10-15T08:24:34.475Z,98108.03
2022-10-15T08:27:02.835Z,98108.38
2022-10-15T08:29:31.055Z,98114.88
2022-10-15T08:31:59.047Z,98114.58
2022-10-15T08:34:28.098Z,98115.95
2022-10-15T08:36:56.574Z,98115.94
2022-10-15T08:39:24.829Z,98118.74
2022-10-15T08:42:03.989Z,98124.83
2022-10-15T08:44:46.323Z,98128.61
2022-10-15T08:47:23.447Z,98124.02
2022-10-15T08:49:56.772Z,98124.85
2022-10-15T08:52:50.415Z,98127.27
2022-10-15T08:55:22.349Z,98130.77
2022-10-15T08:58:02.703Z,98133.08
2022-10-15T09:01:02.720Z,98130.77
2022-10-15T09:03:45.979Z,98130.85
2022-10-15T09:06:20.433Z,98131.95
2022-10-15T09:09:04.453Z,98131.63
2022-10-15T09:11:51.589Z,98127.95
2022-10-15T09:14:24.971Z,98134.02
2022-10-15T09:16:53.207Z,98133.80
2022-10-15T09:19:24.598Z,98129.54
2022-10-15T09:21:53.256Z,98129.92
2022-10-15T09:24:28.635Z,98130.38
2022-10-15T09:27:10.163Z,98131.06
2022-10-15T09:29:58.937Z,98131.35
2022-10-15T09:32:40.887Z,98131.71
2022-10-15T09:35:26.761Z,98134.58
2022-10-15T09:38:04.859Z,98135.94
2022-10-15T09:41:16.827Z,98130.44
2022-10-15T09:43:49.324Z,98130.98
2022-10-15T09:46:17.671Z,98134.13
2022-10-15T09:49:36.130Z,98136.08
2022-10-15T09:52:16.271Z,98131.55
2022-10-15T09:54:48.026Z,98128.00
2022-10-15T09:57:20.576Z,98124.66
2022-10-15T10:00:01.796Z,98122.95
2022-10-15T10:02:41.580Z,98119.76
2022-10-15T10:05:19.218Z,98119.50
2022-10-15T10:07:47.704Z,98126.54
2022-10-15T10:10:31.139Z,98130.83
2022-10-15T10:12:59.431Z,98133.20
2022-10-15T10:15:42.622Z,98134.17
2022-10-15T10:18:25.054Z,98130.18
2022-10-15T10:21:06.799Z,98128.04
2022-10-15T10:23:39.402Z,98128.27
2022-10-15T10:26:10.830Z,98131.25
2022-10-15T10:29:04.717Z,98126.28
2022-10-15T10:31:43.326Z,98121.58
2022-10-15T10:34:17.852Z,98117.27
2022-10-15T10:36:52.142Z,98108.95
2022-10-15T10:39:27.930Z,98106.86
2022-10-15T10:41:57.866Z,98098.82
2022-10-15T10:44:30.900Z,98100.79
2022-10-15T10:47:08.703Z,98099.20
2022-10-15T10:49:47.091Z,98100.08
2022-10-15T10:52:24.228Z,98097.71
2022-10-15T10:55:02.275Z,98089.80
2022-10-15T10:58:00.376Z,98085.42
2022-10-15T11:00:45.141Z,98081.12
2022-10-15T11:03:33.795Z,98077.84
2022-10-15T11:06:20.776Z,98080.59
2022-10-15T11:09:00.361Z,98076.59
2022-10-15T11:11:31.989Z,98071.30
2022-10-15T11:14:17.645Z,98064.72
2022-10-15T11:17:24.672Z,98062.93
2022-10-15T11:20:37.639Z,98059.29
2022-10-15T11:23:42.407Z,98060.44
2022-10-15T11:26:34.108Z,98057.45
2022-10-15T11:29:16.663Z,98054.21
2022-10-15T11:32:14.667Z,98051.92
2022-10-15T11:35:16.902Z,98049.17
2022-10-15T11:38:13.992Z,98044.59
2022-10-15T11:41:02.975Z,98039.42
2022-10-15T11:43:47.932Z,98036.88
2022-10-15T11:46:28.830Z,98032.88
2022-10-15T11:49:03.530Z,98028.48
2022-10-15T11:51:55.580Z,98024.15
2022-10-15T11:54:44.996Z,98024.31
2022-10-15T11:57:17.360Z,98022.88
2022-10-15T12:00:00.662Z,98024.80
2022-10-15T12:02:36.410Z,98017.41
2022-10-15T12:05:18.912Z,98015.24
2022-10-15T12:07:51.126Z,98016.83
2022-10-15T12:10:36.655Z,98013.23
2022-10-15T12:13:28.416Z,98007.11
2022-10-15T12:16:28.207Z,98004.23
2022-10-15T12:19:08.269Z,98006.70
2022-10-15T12:21:38.136Z,98014.55
2022-10-15T12:24:37.873Z,98014.96
2022-10-15T12:27:16.193Z,98009.42
2022-10-15T12:29:49.231Z,98006.97
2022-10-15T12:32:28.912Z,98005.83
2022-10-15T12:35:00.239Z,98001.56
2022-10-15T12:37:32.602Z,98002.54
2022-10-15T12:40:05.673Z,98000.14
2022-10-15T12:42:36.623Z,97995.11
2022-10-15T12:45:08.432Z,97998.36
2022-10-15T12:47:48.483Z,97995.52
2022-10-15T12:50:23.579Z,97994.64
2022-10-15T12:53:02.242Z,97990.52
2022-10-15T12:55:34.184Z,97988.83
2022-10-15T12:58:25.250Z,97987.83
2022-10-15T13:00:53.657Z,97987.02
2022-10-15T13:03:34.596Z,97987.25
2022-10-15T13:06:21.463Z,97984.23
2022-10-15T13:09:29.122Z,97980.27
2022-10-15T13:11:59.936Z,97975.80
2022-10-15T13:14:36.192Z,97971.80
2022-10-15T13:17:23.066Z,97976.89
2022-10-15T13:20:08.513Z,97978.27
2022-10-15T13:22:37.459Z,97976.59
2022-10-15T13:25:16.571Z,97976.88
2022-10-15T13:27:44.623Z,97978.90
2022-10-15T13:30:15.659Z,97981.05
2022-10-15T13:32:49.506Z,97979.09
2022-10-15T13:35:22.772Z,97975.92
2022-10-15T13:37:51.116Z,97973.43
2022-10-15T13:40:26.160Z,97970.48
2022-10-15T13:43:17.994Z,97972.83
2022-10-15T13:45:48.158Z,97970.62
2022-10-15T13:48:23.198Z,97965.30
2022-10-15T13:51:00.436Z,97960.83
2022-10-15T13:53:34.924Z,97957.07
2022-10-15T13:56:28.009Z,97953.88
2022-10-15T13:58:58.604Z,97954.42
2022-10-15T14:01:29.044Z,97952.13
2022-10-15T14:03:59.802Z,97952.84
2022-10-15T14:06:32.428Z,97950.70
2022-10-15T14:09:27.077Z,97951.66
2022-10-15T14:11:59.200Z,97951.07
2022-10-15T14:14:44.181Z,97953.45
2022-10-15T14:17:26.923Z,97954.63
2022-10-15T14:20:25.732Z,97952.20
2022-10-15T14:22:51.659Z,97946.45
2022-10-15T14:25:25.960Z,97950.90
2022-10-15T14:27:54.412Z,97952.55
2022-10-15T14:30:34.436Z,97950.37
2022-10-15T14:33:03.007Z,97947.33
2022-10-15T14:35:34.349Z,97946.02
2022-10-15T14:38:06.450Z,97942.93
2022-10-15T14:40:34.484Z,97938.72
2022-10-15T14:43:06.355Z,97941.03
2022-10-15T14:45:55.257Z,97941.05
2022-10-15T14:48:27.325Z,97940.90
2022-10-15T14:51:00.283Z,97943.39
2022-10-15T14:53:31.962Z,97943.61
2022-10-15T14:56:03.719Z,97942.83
2022-10-15T14:58:31.919Z,97944.52
2022-10-15T15:01:03.234Z,97941.81
2022-10-15T15:03:39.998Z,97943.89
2022-10-15T15:06:09.322Z,97949.04
2022-10-15T15:08:37.679Z,97950.67
2022-10-15T15:11:13.249Z,97960.39
2022-10-15T15:13:44.136Z,97961.02
2022-10-15T15:16:15.430Z,97961.45
2022-10-15T15:18:44.262Z,97956.75
2022-10-15T15:21:20.285Z,97953.42
2022-10-15T15:23:49.249Z,97950.63
2022-10-15T15:26:17.807Z,97952.27
2022-10-15T15:28:46.146Z,97951.80
2022-10-15T15:31:18.053Z,97954.30
2022-10-15T15:33:46.543Z,97961.50
2022-10-15T15:36:20.604Z,97961.87
2022-10-15T15:38:53.184Z,97967.40
2022-10-15T15:41:24.240Z,97968.92
2022-10-15T15:43:55.199Z,97971.52
2022-10-15T15:46:23.550Z,97972.33
2022-10-15T15:48:51.765Z,97975.73
2022-10-15T15:51:21.860Z,97975.02
2022-10-15T15:53:50.150Z,97976.29
2022-10-15T15:56:18.346Z,97978.80
2022-10-15T15:58:48.672Z,97979.23
2022-10-15T16:01:18.338Z,97982.17
2022-10-15T16:03:46.626Z,97982.77
2022-10-15T16:06:14.940Z,97981.93
2022-10-15T16:08:43.071Z,97983.44
2022-10-15T16:11:11.282Z,97987.20
2022-10-15T16:13:41.676Z,97993.26
2022-10-15T16:16:10.942Z,97993.54
2022-10-15T16:18:39.342Z,98001.06
2022-10-15T16:21:07.561Z,98003.14
2022-10-15T16:23:36.063Z,98006.59
2022-10-15T16:26:04.132Z,98010.71
2022-10-15T16:28:32.261Z,98014.52
2022-10-15T16:31:21.125Z,98019.17
2022-10-15T16:33:49.246Z,98024.86
2022-10-15T16:36:18.423Z,98023.86
2022-10-15T16:38:47.602Z,98025.84
2022-10-15T16:41:18.855Z,98026.55
2022-10-15T16:43:48.067Z,98024.67
2022-10-15T16:46:19.311Z,98028.20
2022-10-15T16:48:55.931Z,98031.36
2022-10-15T16:51:24.356Z,98033.35
2022-10-15T16:53:54.785Z,98033.14
2022-10-15T16:56:28.615Z,98037.48
2022-10-15T16:58:57.533Z,98042.14
2022-10-15T17:01:28.683Z,98043.46
2022-10-15T17:03:58.773Z,98043.56
2022-10-15T17:06:29.206Z,98050.48
2022-10-15T17:08:59.037Z,98054.98
2022-10-15T17:11:30.112Z,98051.45
2022-10-15T17:14:01.653Z,98051.55
2022-10-15T17:16:37.493Z,98051.63
2022-10-15T17:19:05.927Z,98060.73
2022-10-15T17:21:35.351Z,98063.59
2022-10-15T17:24:05.706Z,98065.02
2022-10-15T17:26:38.707Z,98067.30
2022-10-15T17:29:11.047Z,98066.79
2022-10-15T17:31:40.050Z,98064.36
2022-10-15T17:34:11.036Z,98066.46
2022-10-15T17:36:45.497Z,98064.02
2022-10-15T17:39:20.550Z,98064.02
2022-10-15T17:41:50.916Z,98062.27
2022-10-15T17:44:20.308Z,98063.83
2022-10-15T17:49:28.519Z,98072.39
2022-10-15T17:51:56.521Z,98071.89
2022-10-15T17:54:24.954Z,98072.25
2022-10-15T17:56:53.048Z,98075.80
2022-10-15T17:59:21.057Z,98076.89
2022-10-15T18:01:58.454Z,98079.75
2022-10-15T18:04:30.896Z,98080.02
2022-10-15T18:06:59.250Z,98082.04
2022-10-15T18:09:28.381Z,98083.68
2022-10-15T18:12:01.052Z,98083.39
2022-10-15T18:14:32.138Z,98083.80
2022-10-15T18:17:00.209Z,98085.41
2022-10-15T18:19:28.897Z,98089.45
2022-10-15T18:21:57.998Z,98092.40
2022-10-15T18:24:26.738Z,98100.25
2022-10-15T18:26:55.345Z,98099.23
2022-10-15T18:29:25.601Z,98099.40
2022-10-15T18:31:57.643Z,98099.75
2022-10-15T18:34:28.396Z,98100.44
2022-10-15T18:36:57.019Z,98103.06
2022-10-15T18:39:26.767Z,98103.77
2022-10-15T18:41:55.006Z,98104.47
2022-10-15T18:44:24.050Z,98104.65
2022-10-15T18:46:52.644Z,98102.91
2022-10-15T18:49:21.091Z,98107.79
2022-10-15T18:51:52.081Z,98110.07
2022-10-15T18:54:22.175Z,98121.60
2022-10-15T18:56:51.201Z,98124.59
2022-10-15T18:59:20.837Z,98124.80
2022-10-15T19:01:50.589Z,98129.54
2022-10-15T19:04:20.524Z,98132.02
2022-10-15T19:06:51.276Z,98130.15
2022-10-15T19:09:22.983Z,98135.77
2022-10-15T19:11:53.755Z,98137.02
2022-10-15T19:14:22.954Z,98139.45
2022-10-15T19:16:51.832Z,98142.09
2022-10-15T19:19:22.438Z,98145.06
2022-10-15T19:21:51.920Z,98149.06
2022-10-15T19:24:21.609Z,98147.98
2022-10-15T19:26:51.698Z,98153.38
2022-10-15T19:29:20.475Z,98157.52
2022-10-15T19:31:54.909Z,98160.30
2022-10-15T19:34:23.979Z,98156.24
2022-10-15T19:36:52.079Z,98157.60
2022-10-15T19:39:22.238Z,98160.70
2022-10-15T19:41:52.443Z,98163.46
2022-10-15T19:44:25.696Z,98165.70
2022-10-15T19:46:56.228Z,98166.39
2022-10-15T19:49:25.711Z,98168.81
2022-10-15T19:51:53.840Z,98175.45
2022-10-15T19:54:21.951Z,98176.55
2022-10-15T19:56:50.016Z,98180.23
2022-10-15T19:59:18.666Z,98182.70
2022-10-15T20:01:46.905Z,98182.05
2022-10-15T20:04:15.098Z,98180.88
2022-10-15T20:06:43.972Z,98182.15
2022-10-15T20:09:12.368Z,98186.19
2022-10-15T20:11:40.406Z,98189.36
2022-10-15T20:14:09.038Z,98187.66
2022-10-15T20:16:37.403Z,98188.19
2022-10-15T20:19:06.560Z,98191.67
2022-10-15T20:21:35.433Z,98196.05
2022-10-15T20:24:04.897Z,98200.42
2022-10-15T20:26:33.614Z,98202.52
2022-10-15T20:29:02.232Z,98208.80
2022-10-15T20:31:33.386Z,98208.11
2022-10-15T20:34:03.392Z,98211.41
2022-10-15T20:36:32.121Z,98211.59
2022-10-15T20:39:01.662Z,98206.91
2022-10-15T20:41:30.272Z,98203.63
2022-10-15T20:43:58.795Z,98201.38
2022-10-15T20:46:37.006Z,98200.86
2022-10-15T20:49:14.780Z,98202.27
2022-10-15T20:51:44.935Z,98202.84
2022-10-15T20:54:15.732Z,98207.02
2022-10-15T20:56:43.625Z,98206.34
2022-10-15T20:59:12.317Z,98213.31
2022-10-15T21:01:40.531Z,98216.11
2022-10-15T21:04:08.884Z,98216.30
2022-10-15T21:06:36.867Z,98211.42
2022-10-15T21:09:04.918Z,98214.21
2022-10-15T21:11:32.985Z,98216.66
2022-10-15T21:14:01.838Z,98221.86
2022-10-15T21:19:04.066Z,98226.56
2022-10-15T21:21:32.806Z,98227.61
2022-10-15T21:24:01.379Z,98231.27
2022-10-15T21:26:29.649Z,98235.78
2022-10-15T21:28:59.990Z,98238.23
2022-10-15T21:31:28.279Z,98239.27
2022-10-15T21:33:56.559Z,98241.52
2022-10-15T21:36:27.097Z,98246.41
2022-10-15T21:39:03.931Z,98252.16
2022-10-15T21:41:33.463Z,98251.11
2022-10-15T21:44:02.405Z,98251.80
2022-10-15T21:46:31.758Z,98251.10
2022-10-15T21:49:01.145Z,98255.96
2022-10-15T21:51:31.830Z,98258.05
2022-10-15T21:54:01.908Z,98256.66
2022-10-15T21:56:29.964Z,98257.02
2022-10-15T21:58:59.269Z,98259.25
2022-10-15T22:01:33.393Z,98259.08
2022-10-15T22:04:10.214Z,98262.04
2022-10-15T22:06:40.491Z,98260.96
2022-10-15T22:09:10.468Z,98260.80
2022-10-15T22:11:40.430Z,98261.84
2022-10-15T22:14:11.694Z,98265.66
2022-10-15T22:16:41.066Z,98269.14
2022-10-15T22:19:13.679Z,98271.73
2022-10-15T22:21:42.405Z,98270.17
2022-10-15T22:24:14.983Z,98272.09
2022-10-15T22:26:45.789Z,98271.91
2022-10-15T22:29:25.930Z,98275.05
2022-10-15T22:31:54.689Z,98277.83
2022-10-15T22:34:23.730Z,98277.13
2022-10-15T22:36:52.218Z,98276.45
2022-10-15T22:39:20.253Z,98278.53
2022-10-15T22:41:49.109Z,98281.14
2022-10-15T22:44:20.748Z,98282.88
2022-10-15T22:46:49.922Z,98284.09
2022-10-15T22:49:20.982Z,98282.17
2022-10-15T22:51:50.588Z,98282.86
2022-10-15T22:54:22.132Z,98279.54
2022-10-15T22:56:51.288Z,98280.56
2022-10-15T22:59:20.279Z,98283.83
2022-10-15T23:01:48.514Z,98290.76
2022-10-15T23:04:17.228Z,98297.17
2022-10-15T23:06:45.238Z,98300.45
2022-10-15T23:09:17.934Z,98304.08
2022-10-15T23:11:47.195Z,98308.56
2022-10-15T23:14:16.584Z,98309.79
2022-10-15T23:16:47.029Z,98312.04
2022-10-15T23:19:18.485Z,98312.92
2022-10-15T23:21:52.756Z,98316.40
2022-10-15T23:24:23.093Z,98321.80
2022-10-15T23:26:51.777Z,98322.52
2022-10-15T23:29:22.444Z,98325.80
2022-10-15T23:31:52.550Z,98324.58
2022-10-15T23:34:24.015Z,98325.80
2022-10-15T23:36:52.950Z,98324.92
2022-10-15T23:39:23.890Z,98324.59
2022-10-15T23:41:52.680Z,98326.49
2022-10-15T23:44:21.558Z,98327.52
2022-10-15T23:46:49.361Z,98324.21
2022-10-15T23:49:17.603Z,98320.38
2022-10-15T23:51:45.978Z,98323.83
2022-10-15T23:54:17.849Z,98326.94
2022-10-15T23:56:47.406Z,98329.67
2022-10-15T23:59:17.181Z,98329.29
